NKS779 KMCO-KFLL
Flight info
| Callsign | NKS779 |
|---|---|
| Flight time | N/A |
| Altitude | 25000 |
| Route | DDANY3 JIPOD CUUDA3 |
| Aircraft | A20N/M-SDE2E3FGHIRWXY/LB1 |
Departure
| Time | 2026-05-04 00:38 |
|---|---|
| Airport | Orlando International Airport (KMCO) |
Arrival
| Time | N/A |
|---|---|
| Airport | Fort Lauderdale Hollywood International Airport (KFLL) |
| Time | Latitude | Longitude | Altitude | Speed | Heading |
|---|---|---|---|---|---|
| 2026-05-04 00:18 | 28.43423 | -81.31593 | 102 ft | 0 kts | 119° |
| 2026-05-04 00:27 | 28.43428 | -81.31603 | 102 ft | 4 kts | 118° |
| 2026-05-04 00:28 | 28.43440 | -81.31631 | 99 ft | 4 kts | 116° |
| 2026-05-04 00:28 | 28.43452 | -81.31656 | 99 ft | 4 kts | 137° |
| 2026-05-04 00:28 | 28.43475 | -81.31668 | 101 ft | 4 kts | 184° |
| 2026-05-04 00:28 | 28.43488 | -81.31666 | 99 ft | 1 kts | 192° |
| 2026-05-04 00:29 | 28.43489 | -81.31666 | 102 ft | 0 kts | 192° |
| 2026-05-04 00:31 | 28.43480 | -81.31668 | 102 ft | 3 kts | 192° |
| 2026-05-04 00:31 | 28.43447 | -81.31676 | 102 ft | 7 kts | 192° |
| 2026-05-04 00:32 | 28.43386 | -81.31689 | 102 ft | 11 kts | 191° |
| 2026-05-04 00:32 | 28.43311 | -81.31711 | 102 ft | 12 kts | 204° |
| 2026-05-04 00:32 | 28.43255 | -81.31776 | 102 ft | 12 kts | 234° |
| 2026-05-04 00:32 | 28.43212 | -81.31847 | 101 ft | 11 kts | 237° |
| 2026-05-04 00:33 | 28.43175 | -81.31913 | 100 ft | 6 kts | 238° |
| 2026-05-04 00:33 | 28.43064 | -81.31994 | 102 ft | 18 kts | 182° |
| 2026-05-04 00:33 | 28.42927 | -81.31993 | 102 ft | 21 kts | 179° |
| 2026-05-04 00:34 | 28.42782 | -81.31991 | 105 ft | 21 kts | 179° |
| 2026-05-04 00:34 | 28.42645 | -81.31990 | 108 ft | 20 kts | 179° |
| 2026-05-04 00:34 | 28.42499 | -81.31988 | 108 ft | 22 kts | 179° |
| 2026-05-04 00:34 | 28.42336 | -81.31986 | 109 ft | 23 kts | 179° |
| 2026-05-04 00:35 | 28.42182 | -81.31984 | 108 ft | 23 kts | 180° |
| 2026-05-04 00:35 | 28.42011 | -81.31983 | 103 ft | 25 kts | 179° |
| 2026-05-04 00:35 | 28.41844 | -81.31980 | 102 ft | 19 kts | 180° |
| 2026-05-04 00:35 | 28.41725 | -81.31980 | 101 ft | 16 kts | 179° |
| 2026-05-04 00:36 | 28.41622 | -81.31979 | 102 ft | 14 kts | 180° |
| 2026-05-04 00:36 | 28.41549 | -81.32020 | 100 ft | 13 kts | 251° |
| 2026-05-04 00:36 | 28.41543 | -81.32095 | 101 ft | 7 kts | 269° |
| 2026-05-04 00:36 | 28.41544 | -81.32163 | 101 ft | 10 kts | 284° |
| 2026-05-04 00:37 | 28.41606 | -81.32196 | 101 ft | 13 kts | 357° |
| 2026-05-04 00:37 | 28.41883 | -81.32198 | 102 ft | 75 kts | 359° |
| 2026-05-04 00:37 | 28.42619 | -81.32207 | 106 ft | 134 kts | 360° |
| 2026-05-04 00:37 | 28.43692 | -81.32237 | 313 ft | 162 kts | 1° |
| 2026-05-04 00:38 | 28.44818 | -81.32272 | 982 ft | 163 kts | 1° |
| 2026-05-04 00:38 | 28.45945 | -81.32295 | 1752 ft | 160 kts | 7° |
| 2026-05-04 00:38 | 28.47000 | -81.31942 | 2321 ft | 160 kts | 37° |
| 2026-05-04 00:38 | 28.47724 | -81.31011 | 2887 ft | 160 kts | 65° |
| 2026-05-04 00:39 | 28.47956 | -81.29733 | 3443 ft | 174 kts | 88° |
| 2026-05-04 00:39 | 28.47829 | -81.28309 | 4085 ft | 188 kts | 100° |
| 2026-05-04 00:39 | 28.47560 | -81.26849 | 4654 ft | 185 kts | 97° |
| 2026-05-04 00:39 | 28.47441 | -81.25314 | 5113 ft | 205 kts | 91° |
| 2026-05-04 00:40 | 28.47530 | -81.23686 | 6030 ft | 205 kts | 82° |
| 2026-05-04 00:40 | 28.47812 | -81.22137 | 6767 ft | 189 kts | 74° |
| 2026-05-04 00:40 | 28.48269 | -81.20572 | 7016 ft | 223 kts | 68° |
| 2026-05-04 00:40 | 28.48886 | -81.18980 | 7943 ft | 207 kts | 63° |
| 2026-05-04 00:41 | 28.49589 | -81.17463 | 8343 ft | 227 kts | 60° |
| 2026-05-04 00:41 | 28.50244 | -81.15788 | 9080 ft | 236 kts | 70° |
| 2026-05-04 00:41 | 28.50638 | -81.13971 | 9934 ft | 241 kts | 81° |
| 2026-05-04 00:41 | 28.50603 | -81.12012 | 10467 ft | 253 kts | 104° |
| 2026-05-04 00:42 | 28.50079 | -81.10140 | 11326 ft | 244 kts | 114° |